Time;durP1;ratioP1;P1;durP2;ratioP2;P2;SDS_P1;SDS_P2;PMS_P1;PMS_P2;Temp;Humidity;BMP_temperature;BMP_pressure;BME280_temperature;BME280_humidity;BME280_pressure;Samples;Min_cycle;Max_cycle;Signal;HPM_P1;HPM_P2
2022/06/23 00:01:49;;;;;;;3.60;1.70;;;;;;;12.54;100.00;100814.75;4948216;28;20189;-82
2022/06/23 00:04:18;;;;;;;2.30;1.48;;;;;;;12.39;100.00;100792.38;4982553;28;20084;-80
2022/06/23 00:06:54;;;;;;;3.03;1.55;;;;;;;12.52;100.00;100817.66;4967790;28;20101;-79
2022/06/23 00:09:31;;;;;;;2.80;1.65;;;;;;;12.52;100.00;100809.56;4956594;28;20038;-83
2022/06/23 00:11:57;;;;;;;3.45;2.03;;;;;;;12.57;100.00;100816.25;4982459;28;20053;-80
2022/06/23 00:14:25;;;;;;;4.70;1.80;;;;;;;12.53;100.00;100810.41;4966267;28;20030;-86
2022/06/23 00:16:50;;;;;;;3.97;1.95;;;;;;;12.50;100.00;100817.00;4951542;28;20149;-84
2022/06/23 00:19:16;;;;;;;4.07;1.80;;;;;;;12.46;100.00;100802.25;5001226;28;20069;-83
2022/06/23 00:21:48;;;;;;;2.97;1.80;;;;;;;12.46;100.00;100804.06;4975371;28;20480;-80
2022/06/23 00:24:20;;;;;;;4.22;1.80;;;;;;;12.45;100.00;100803.25;4956417;28;20270;-85
2022/06/23 00:26:49;;;;;;;2.90;1.95;;;;;;;12.44;100.00;100806.97;4960393;28;20026;-82
2022/06/23 00:29:16;;;;;;;2.30;1.80;;;;;;;12.42;100.00;100792.84;4974097;28;20121;-81
2022/06/23 00:31:43;;;;;;;2.45;1.65;;;;;;;12.48;100.00;100791.25;4992236;28;20038;-80
2022/06/23 00:34:27;;;;;;;5.85;2.00;;;;;;;12.49;100.00;100793.78;4989359;28;20030;-78
2022/06/23 00:37:05;;;;;;;5.10;1.75;;;;;;;12.46;100.00;100788.75;4991119;28;20030;-83
2022/06/23 00:39:44;;;;;;;3.22;1.90;;;;;;;12.46;100.00;100785.19;4998559;28;20468;-81
2022/06/23 00:42:42;;;;;;;2.90;2.00;;;;;;;12.45;100.00;100770.06;4973193;28;20480;-83
2022/06/23 00:45:11;;;;;;;3.97;1.52;;;;;;;12.46;100.00;100777.09;4956745;28;20100;-79
2022/06/23 00:47:49;;;;;;;4.20;1.65;;;;;;;12.44;100.00;100773.78;4984469;28;20082;-79
2022/06/23 00:50:33;;;;;;;3.13;1.80;;;;;;;12.42;100.00;100765.88;4972697;28;20032;-85
2022/06/23 00:53:04;;;;;;;4.55;1.98;;;;;;;12.29;100.00;100720.69;4969409;28;20038;-82
2022/06/23 00:55:41;;;;;;;2.65;1.65;;;;;;;12.50;100.00;100757.69;4985486;28;20026;-82
2022/06/23 00:58:21;;;;;;;2.83;2.17;;;;;;;12.43;100.00;100751.34;4970784;28;20092;-83
2022/06/23 01:00:51;;;;;;;3.35;2.00;;;;;;;12.44;100.00;100760.31;4997212;28;20420;-81
2022/06/23 01:03:37;;;;;;;2.50;1.52;;;;;;;12.41;100.00;100739.94;4983779;28;20507;-82
2022/06/23 01:06:15;;;;;;;2.78;1.58;;;;;;;12.42;100.00;100736.22;4970547;28;20038;-81
2022/06/23 01:08:50;;;;;;;3.30;1.70;;;;;;;12.37;100.00;100741.31;4988112;28;20045;-81
2022/06/23 01:11:45;;;;;;;2.95;1.65;;;;;;;12.38;100.00;100739.47;4955136;28;20524;-80
2022/06/23 01:14:20;;;;;;;3.75;1.63;;;;;;;12.37;100.00;100735.09;4957876;28;20549;-81
2022/06/23 01:16:47;;;;;;;2.72;1.85;;;;;;;12.36;100.00;100734.28;4971374;28;20468;-79
2022/06/23 01:19:50;;;;;;;2.92;1.60;;;;;;;12.34;100.00;100748.97;4986279;28;20061;-83
2022/06/23 01:22:25;;;;;;;2.92;1.60;;;;;;;12.30;100.00;100743.09;4973066;28;20042;-80
2022/06/23 01:25:05;;;;;;;4.57;1.95;;;;;;;12.30;100.00;100741.25;4989193;28;20034;-81
2022/06/23 01:27:46;;;;;;;4.60;2.45;;;;;;;12.31;100.00;100742.09;5001318;28;20128;-82
2022/06/23 01:30:12;;;;;;;6.28;3.13;;;;;;;12.27;100.00;100730.81;4988852;28;20030;-82
2022/06/23 01:32:45;;;;;;;5.05;3.08;;;;;;;12.34;100.00;100739.00;4952988;28;20413;-80
2022/06/23 01:35:20;;;;;;;5.68;2.97;;;;;;;12.28;100.00;100718.19;4976714;28;20153;-80
2022/06/23 01:37:50;;;;;;;4.43;2.70;;;;;;;12.30;100.00;100708.03;4991283;28;20034;-79
2022/06/23 01:40:35;;;;;;;5.22;2.70;;;;;;;12.36;100.00;100720.78;4961066;28;20030;-79
2022/06/23 01:43:01;;;;;;;5.40;2.63;;;;;;;12.37;100.00;100717.06;4963764;28;20035;-81
2022/06/23 01:45:34;;;;;;;5.10;2.63;;;;;;;12.37;100.00;100719.75;4965921;28;20054;-81
2022/06/23 01:48:00;;;;;;;;;;;;;;;12.39;100.00;100712.31;4973094;28;20535;-81
2022/06/23 01:50:32;;;;;;;4.75;2.10;;;;;;;12.41;100.00;100710.28;4989625;28;20016;-81
2022/06/23 01:53:16;;;;;;;4.50;2.90;;;;;;;12.41;100.00;100701.31;4988082;28;20050;-83
2022/06/23 01:56:01;;;;;;;4.30;2.50;;;;;;;12.41;100.00;100702.19;4984958;28;20038;-80
2022/06/23 01:58:34;;;;;;;5.25;2.95;;;;;;;12.39;100.00;100689.91;4995945;28;20030;-81
2022/06/23 02:01:02;;;;;;;7.20;3.20;;;;;;;12.40;100.00;100696.97;4981443;28;20026;-84
2022/06/23 02:03:35;;;;;;;6.70;3.10;;;;;;;12.37;100.00;100694.66;4987900;28;20492;-82
2022/06/23 02:06:11;;;;;;;6.90;3.25;;;;;;;12.34;100.00;100689.66;4957750;28;20034;-83
2022/06/23 02:08:40;;;;;;;7.45;3.50;;;;;;;12.31;100.00;100686.31;4986473;28;20122;-80
2022/06/23 02:11:18;;;;;;;6.78;3.53;;;;;;;12.33;100.00;100683.41;4985808;28;20073;-81
2022/06/23 02:14:01;;;;;;;6.13;3.20;;;;;;;12.32;100.00;100679.88;4989833;28;20050;-79
2022/06/23 02:16:46;;;;;;;6.18;3.53;;;;;;;12.30;100.00;100676.56;4969182;28;20034;-81
2022/06/23 02:19:37;;;;;;;8.20;3.22;;;;;;;12.27;100.00;100681.47;4966734;28;20039;-81
2022/06/23 02:22:14;;;;;;;6.13;3.40;;;;;;;12.22;100.00;100675.81;4963376;28;20046;-81
2022/06/23 02:25:03;;;;;;;5.45;3.20;;;;;;;12.21;100.00;100674.97;4957783;28;20070;-83
2022/06/23 02:27:44;;;;;;;6.18;4.05;;;;;;;12.00;100.00;100656.88;4968035;28;20310;-81
2022/06/23 02:30:32;;;;;;;8.00;3.90;;;;;;;12.16;100.00;100677.41;4973855;28;20480;-80
2022/06/23 02:33:19;;;;;;;10.77;4.65;;;;;;;12.15;100.00;100675.72;4990958;28;20124;-80
2022/06/23 02:35:54;;;;;;;9.57;4.25;;;;;;;12.14;100.00;100682.13;4989586;28;20042;-81
2022/06/23 02:38:19;;;;;;;7.75;3.60;;;;;;;12.17;100.00;100673.69;5005193;28;20046;-81
2022/06/23 02:41:02;;;;;;;8.65;3.85;;;;;;;12.00;100.00;100656.88;4984429;28;20038;-82
2022/06/23 02:43:38;;;;;;;8.95;3.90;;;;;;;12.09;100.00;100676.47;4987101;28;20030;-81
2022/06/23 02:46:26;;;;;;;7.47;3.10;;;;;;;12.02;100.00;100660.22;4970508;28;20397;-80
2022/06/23 02:49:09;;;;;;;10.45;4.50;;;;;;;12.02;100.00;100656.69;4966756;28;21328;-80
2022/06/23 02:51:43;;;;;;;;;;;;;;;12.09;100.00;100668.38;4972004;28;20101;-83
2022/06/23 02:54:48;;;;;;;7.47;3.58;;;;;;;12.07;100.00;100665.91;4972880;28;20268;-80
2022/06/23 02:57:22;;;;;;;8.27;3.08;;;;;;;12.08;100.00;100661.31;4977996;28;20030;-81
2022/06/23 02:59:57;;;;;;;8.07;3.42;;;;;;;11.96;100.00;100638.56;4988227;28;20404;-83
2022/06/23 03:02:42;;;;;;;8.07;3.78;;;;;;;12.05;100.00;100665.22;4981769;28;20424;-80
2022/06/23 03:05:27;;;;;;;8.82;3.30;;;;;;;12.03;100.00;100659.19;4982315;28;20121;-80
2022/06/23 03:08:09;;;;;;;6.45;3.33;;;;;;;11.98;100.00;100650.00;4971629;28;20030;-80
2022/06/23 03:10:42;;;;;;;7.90;3.37;;;;;;;11.82;100.00;100632.97;4955121;28;20034;-80
2022/06/23 03:13:14;;;;;;;11.52;3.60;;;;;;;11.79;100.00;100644.13;4969539;28;20488;-82
2022/06/23 03:15:46;;;;;;;9.20;4.10;;;;;;;11.78;100.00;100638.94;4954258;28;20065;-81
2022/06/23 03:18:38;;;;;;;9.48;3.15;;;;;;;11.75;100.00;100640.16;4971337;28;20037;-83
2022/06/23 03:21:15;;;;;;;9.80;4.28;;;;;;;11.73;100.00;100639.50;4965401;28;20144;-82
2022/06/23 03:23:52;;;;;;;12.50;3.38;;;;;;;11.71;100.00;100632.63;4966167;28;20428;-80
2022/06/23 03:26:33;;;;;;;9.70;3.60;;;;;;;11.68;100.00;100627.63;4966096;28;20045;-80
2022/06/23 03:29:24;;;;;;;9.13;3.58;;;;;;;11.71;100.00;100624.53;4981814;28;20133;-80
2022/06/23 03:31:50;;;;;;;10.30;3.83;;;;;;;11.69;100.00;100619.34;4946886;28;1215199;-80
2022/06/23 03:34:21;;;;;;;11.25;4.32;;;;;;;11.60;100.00;100607.81;4984106;28;20035;-83
2022/06/23 03:36:51;;;;;;;10.95;3.92;;;;;;;11.67;100.00;100626.78;4984873;28;20490;-81
2022/06/23 03:42:55;;;;;;;10.38;4.30;;;;;;;11.66;100.00;100617.84;4971294;28;20113;-79
2022/06/23 03:45:35;;;;;;;14.18;4.10;;;;;;;11.68;100.00;100617.66;4951444;28;20042;-85
2022/06/23 03:48:12;;;;;;;11.40;4.65;;;;;;;11.67;100.00;100613.31;4965808;28;20092;-84
2022/06/23 03:50:52;;;;;;;12.35;4.35;;;;;;;11.65;100.00;100613.50;4971842;28;20482;-80
2022/06/23 03:53:27;;;;;;;14.13;5.40;;;;;;;11.63;100.00;100603.94;4971039;28;20514;-82
2022/06/23 03:56:05;;;;;;;12.30;5.43;;;;;;;11.68;100.00;100612.28;4967715;28;20384;-80
2022/06/23 03:58:37;;;;;;;16.90;5.43;;;;;;;11.59;100.00;100602.63;4980459;28;20046;-81
2022/06/23 04:01:14;;;;;;;15.05;5.82;;;;;;;11.69;100.00;100615.81;4986041;28;20030;-86
2022/06/23 04:03:42;;;;;;;17.40;6.55;;;;;;;11.68;100.00;100614.16;4983255;28;20070;-84
2022/06/23 04:06:21;;;;;;;18.60;5.93;;;;;;;11.65;100.00;100613.50;4972002;28;20038;-80
2022/06/23 04:09:00;;;;;;;16.40;5.43;;;;;;;11.50;100.00;100590.28;4988550;28;20038;-84
2022/06/23 04:11:43;;;;;;;18.42;6.45;;;;;;;11.65;100.00;100609.97;4987065;28;20054;-84
2022/06/23 04:14:27;;;;;;;17.33;5.65;;;;;;;11.68;100.00;100617.66;4954660;28;20056;-84
2022/06/23 04:17:03;;;;;;;22.33;7.68;;;;;;;11.55;100.00;100579.78;4952074;28;20034;-83
2022/06/23 04:19:30;;;;;;;19.60;6.60;;;;;;;11.70;100.00;100599.47;4981677;28;20034;-82
2022/06/23 04:22:03;;;;;;;22.45;7.82;;;;;;;11.72;100.00;100616.25;4956194;28;20054;-80
2022/06/23 04:24:29;;;;;;;20.55;6.88;;;;;;;11.70;100.00;100604.03;4971886;28;20038;-82
2022/06/23 04:26:57;;;;;;;25.17;7.13;;;;;;;11.72;100.00;100596.56;4968972;28;20031;-79
2022/06/23 04:29:27;;;;;;;29.45;7.45;;;;;;;11.68;100.00;100582.66;4953902;28;20061;-83
2022/06/23 04:32:00;;;;;;;21.63;7.45;;;;;;;11.74;100.00;100581.91;4986287;28;20034;-81
2022/06/23 04:34:29;;;;;;;26.83;8.93;;;;;;;11.83;100.00;100596.13;4988521;28;20053;-83
2022/06/23 04:36:55;;;;;;;24.52;8.18;;;;;;;11.71;100.00;100574.19;4953589;28;20254;-82
2022/06/23 04:39:42;;;;;;;30.70;9.85;;;;;;;11.82;100.00;100589.88;4988411;28;20318;-83
2022/06/23 04:42:24;;;;;;;33.92;9.90;;;;;;;11.83;100.00;100588.88;4968486;28;20471;-81
2022/06/23 04:44:53;;;;;;;29.35;9.68;;;;;;;11.84;100.00;100589.69;4972581;28;20038;-81
2022/06/23 04:47:29;;;;;;;31.58;10.90;;;;;;;11.83;100.00;100593.44;4955052;28;20030;-83
2022/06/23 04:50:03;;;;;;;27.52;10.30;;;;;;;11.88;100.00;100596.41;4989061;28;20065;-81
2022/06/23 04:52:35;;;;;;;29.80;9.13;;;;;;;11.90;100.00;100594.34;4970915;28;20038;-81
2022/06/23 04:55:23;;;;;;;30.40;9.60;;;;;;;11.87;100.00;100589.34;4991941;28;20027;-81
2022/06/23 04:58:01;;;;;;;23.33;8.20;;;;;;;11.86;100.00;100576.91;4965055;28;20266;-82
2022/06/23 05:00:29;;;;;;;33.28;9.95;;;;;;;11.95;100.00;100596.50;4974341;28;20045;-80
2022/06/23 05:03:03;;;;;;;25.55;9.43;;;;;;;11.94;100.00;100589.44;4992608;28;20053;-80
2022/06/23 05:05:32;;;;;;;26.65;9.15;;;;;;;11.96;100.00;100587.38;4958322;28;20038;-81
2022/06/23 05:08:05;;;;;;;17.65;6.75;;;;;;;11.87;100.00;100554.31;4954995;28;20034;-81
2022/06/23 05:10:45;;;;;;;21.35;7.05;;;;;;;12.05;100.00;100592.47;4969906;28;20026;-81
2022/06/23 05:13:20;;;;;;;28.63;9.95;;;;;;;11.98;100.00;100577.25;4955204;28;20476;-79
2022/06/23 05:16:08;;;;;;;26.85;8.23;;;;;;;12.03;100.00;100585.59;4974004;28;20088;-85
2022/06/23 05:18:55;;;;;;;24.98;7.75;;;;;;;12.03;100.00;100582.91;4956305;28;20488;-81
2022/06/23 05:21:28;;;;;;;24.77;8.50;;;;;;;12.02;100.00;100583.94;4970611;28;20031;-82
2022/06/23 05:23:59;;;;;;;20.15;7.03;;;;;;;12.05;100.00;100586.25;4974258;28;20180;-80
2022/06/23 05:26:37;;;;;;;25.13;7.85;;;;;;;12.08;100.00;100588.56;4957552;28;20256;-80
2022/06/23 05:29:49;;;;;;;23.55;8.02;;;;;;;12.09;100.00;100591.09;4957189;28;20395;-82
2022/06/23 05:32:20;;;;;;;22.55;7.82;;;;;;;12.10;100.00;100591.91;4991980;28;20034;-80
2022/06/23 05:34:58;;;;;;;20.40;7.20;;;;;;;12.07;100.00;100576.97;4982010;28;20488;-84
2022/06/23 05:37:33;;;;;;;19.90;6.07;;;;;;;12.14;100.00;100585.09;5006409;28;20050;-81
2022/06/23 05:40:29;;;;;;;17.35;6.10;;;;;;;12.17;100.00;100567.72;4984097;28;20787;-80
2022/06/23 05:43:00;;;;;;;17.98;5.10;;;;;;;12.21;100.00;100571.72;4955170;28;20039;-80
2022/06/23 05:45:29;;;;;;;12.30;4.63;;;;;;;12.27;100.00;100577.16;4986896;28;20121;-80
2022/06/23 05:47:56;;;;;;;10.48;4.35;;;;;;;12.30;100.00;100570.53;4971396;28;20077;-82
2022/06/23 05:50:26;;;;;;;14.95;5.13;;;;;;;12.32;100.00;100572.03;4990551;28;20053;-83
2022/06/23 05:52:59;;;;;;;14.65;4.30;;;;;;;12.30;100.00;100563.31;4965333;28;20790;-79
2022/06/23 05:55:40;;;;;;;10.23;3.65;;;;;;;12.27;100.00;100562.84;4970970;28;20113;-82
2022/06/23 05:58:15;;;;;;;10.20;3.38;;;;;;;12.30;100.00;100574.09;4971965;28;20034;-80
2022/06/23 06:00:49;;;;;;;10.25;3.90;;;;;;;12.34;100.00;100576.41;4985358;28;20489;-79
2022/06/23 06:03:17;;;;;;;7.43;3.20;;;;;;;12.39;100.00;100572.09;4957390;28;20476;-81
2022/06/23 06:05:49;;;;;;;8.75;3.47;;;;;;;12.45;100.00;100568.63;4966984;28;20042;-84
2022/06/23 06:08:26;;;;;;;6.72;3.30;;;;;;;12.53;100.00;100565.81;4970175;28;20472;-79
2022/06/23 06:10:53;;;;;;;4.97;2.63;;;;;;;12.65;100.00;100570.66;4981376;28;20029;-84
2022/06/23 06:13:23;;;;;;;5.05;2.80;;;;;;;12.73;100.00;100560.59;4949087;28;20034;-78
2022/06/23 06:15:57;;;;;;;7.28;3.40;;;;;;;12.86;100.00;100559.00;4969589;28;20549;-84
2022/06/23 06:18:37;;;;;;;5.10;2.60;;;;;;;13.05;100.00;100569.16;4957661;28;20038;-81
2022/06/23 06:21:05;;;;;;;4.20;2.17;;;;;;;13.13;100.00;100562.75;4970022;28;20038;-82
2022/06/23 06:23:44;;;;;;;3.90;2.17;;;;;;;13.38;100.00;100565.84;4967894;28;20038;-83
2022/06/23 06:26:17;;;;;;;4.53;2.20;;;;;;;13.52;100.00;100555.94;4966283;28;20479;-83
2022/06/23 06:28:42;;;;;;;3.08;1.73;;;;;;;13.60;100.00;100558.47;4978359;28;20034;-87
2022/06/23 06:31:42;;;;;;;2.15;1.30;;;;;;;13.59;100.00;100557.66;4991054;28;20018;-82
2022/06/23 06:34:15;;;;;;;3.08;1.33;;;;;;;13.62;100.00;100551.84;4961047;28;20048;-80
2022/06/23 06:36:50;;;;;;;2.40;1.52;;;;;;;13.71;100.00;100551.69;4971225;28;20039;-79
2022/06/23 06:39:29;;;;;;;2.42;1.38;;;;;;;13.84;100.00;100538.22;4971159;28;20034;-82
2022/06/23 06:42:03;;;;;;;2.75;1.48;;;;;;;14.04;100.00;100538.28;4956679;28;20057;-81
2022/06/23 06:44:30;;;;;;;3.13;1.50;;;;;;;13.97;100.00;100540.97;4989271;28;20172;-80
2022/06/23 06:46:56;;;;;;;1.90;1.13;;;;;;;13.91;100.00;100536.38;4962865;28;20064;-81
2022/06/23 06:49:23;;;;;;;2.10;1.30;;;;;;;13.85;100.00;100543.41;4984964;28;20505;-84
2022/06/23 06:51:51;;;;;;;3.95;1.50;;;;;;;13.84;100.00;100539.06;4972618;28;20488;-81
2022/06/23 06:54:20;;;;;;;2.33;1.40;;;;;;;14.07;100.00;100535.16;4984641;28;20356;-79
2022/06/23 06:57:05;;;;;;;3.38;1.40;;;;;;;14.54;100.00;100533.41;4953130;28;20534;-81
2022/06/23 06:59:44;;;;;;;1.90;1.20;;;;;;;14.77;100.00;100526.75;4962310;28;20041;-80
2022/06/23 07:02:15;;;;;;;1.92;1.10;;;;;;;14.82;100.00;100538.63;4971129;28;20435;-81
2022/06/23 07:04:50;;;;;;;1.38;1.00;;;;;;;14.80;100.00;100532.56;4965510;28;20034;-78
2022/06/23 07:07:19;;;;;;;1.13;0.82;;;;;;;14.81;99.75;100531.53;4972492;28;20053;-81
2022/06/23 07:10:10;;;;;;;1.80;0.90;;;;;;;14.95;99.55;100535.91;4946874;28;20115;-83
2022/06/23 07:12:58;;;;;;;4.07;1.20;;;;;;;14.77;99.54;100480.75;4964507;28;20566;-82
2022/06/23 07:15:34;;;;;;;1.40;1.00;;;;;;;15.08;97.34;100526.06;4948897;28;20037;-83
2022/06/23 07:18:06;;;;;;;1.50;1.10;;;;;;;15.09;96.97;100527.75;4984939;28;20057;-80
2022/06/23 07:20:51;;;;;;;2.92;1.10;;;;;;;15.09;96.00;100520.47;4955916;28;20181;-82
2022/06/23 07:23:25;;;;;;;1.20;0.90;;;;;;;15.11;95.05;100528.34;4989627;28;20045;-80
2022/06/23 07:25:57;;;;;;;1.73;0.80;;;;;;;15.14;95.29;100526.06;4960474;28;20034;-83
2022/06/23 07:28:34;;;;;;;2.05;1.10;;;;;;;15.44;94.38;100527.44;4964660;28;20397;-80
2022/06/23 07:31:11;;;;;;;1.58;0.90;;;;;;;15.87;92.07;100526.88;4984994;28;20432;-79
2022/06/23 07:34:02;;;;;;;1.40;0.90;;;;;;;16.12;89.48;100532.41;4970472;28;20185;-78
2022/06/23 07:36:27;;;;;;;1.80;0.82;;;;;;;15.92;87.79;100530.59;4986631;28;20065;-83
2022/06/23 07:39:41;;;;;;;1.00;0.60;;;;;;;15.74;88.30;100531.31;4985297;28;20066;-78
2022/06/23 07:42:47;;;;;;;0.82;0.68;;;;;;;15.60;89.19;100532.41;4957219;28;20117;-79
2022/06/23 07:45:19;;;;;;;1.77;1.20;;;;;;;15.38;88.44;100521.84;4979797;28;20038;-79
2022/06/23 07:47:45;;;;;;;0.82;0.70;;;;;;;15.14;89.78;100517.94;4971534;28;20081;-79
2022/06/23 07:50:17;;;;;;;2.38;0.80;;;;;;;15.04;90.69;100527.56;4954868;28;20487;-79
2022/06/23 07:52:43;;;;;;;1.35;1.20;;;;;;;15.01;91.67;100527.97;4982145;28;20177;-80
2022/06/23 07:55:34;;;;;;;1.42;0.80;;;;;;;15.16;91.04;100531.25;4961742;28;20368;-78
2022/06/23 07:58:00;;;;;;;0.98;0.77;;;;;;;15.15;90.74;100518.78;4946229;28;20476;-79
2022/06/23 08:00:26;;;;;;;1.67;0.90;;;;;;;15.29;90.15;100533.09;4993482;28;20062;-80
2022/06/23 08:03:00;;;;;;;1.20;0.63;;;;;;;15.30;89.47;100523.97;4971870;28;20066;-84
2022/06/23 08:05:51;;;;;;;1.65;0.80;;;;;;;15.34;88.55;100528.72;4986764;28;20070;-82
2022/06/23 08:08:25;;;;;;;1.00;0.70;;;;;;;15.35;88.84;100521.44;4952474;28;20034;-82
2022/06/23 08:12:53;;;;;;;4.22;3.05;;;;;;;15.45;88.92;100507.44;4950595;28;20035;-80
2022/06/23 08:13:42;;;;;;;2.55;1.20;;;;;;;15.74;87.79;100530.47;4980114;28;20523;-82
2022/06/23 08:19:00;;;;;;;3.70;1.50;;;;;;;15.69;85.52;100522.16;4977937;28;20034;-83
2022/06/23 08:21:28;;;;;;;1.92;1.40;;;;;;;15.65;85.90;100523.63;4972541;28;20141;-81
2022/06/23 08:23:57;;;;;;;1.23;0.90;;;;;;;15.57;86.26;100508.44;4977749;28;20073;-80
2022/06/23 08:26:23;;;;;;;1.20;0.85;;;;;;;15.71;86.96;100522.78;4978130;28;20045;-80
2022/06/23 08:28:55;;;;;;;1.27;0.80;;;;;;;15.60;87.27;100511.53;4950388;28;20499;-84
2022/06/23 08:31:21;;;;;;;1.05;0.90;;;;;;;15.63;88.08;100518.41;4974836;28;20041;-81
2022/06/23 08:33:47;;;;;;;2.92;1.35;;;;;;;15.61;88.53;100517.78;4965128;28;20038;-83
2022/06/23 08:36:16;;;;;;;2.45;0.90;;;;;;;15.66;88.20;100511.72;4991058;28;20046;-80
2022/06/23 08:38:48;;;;;;;1.55;0.88;;;;;;;15.61;87.50;100506.94;4982954;28;20035;-80
2022/06/23 08:41:27;;;;;;;1.33;0.90;;;;;;;15.70;88.19;100515.72;4988766;28;20443;-83
2022/06/23 08:43:56;;;;;;;3.22;1.02;;;;;;;15.91;87.56;100518.09;4950270;28;20094;-80
2022/06/23 08:46:34;;;;;;;1.52;0.95;;;;;;;16.22;85.79;100513.72;4973991;28;20034;-81
2022/06/23 08:49:14;;;;;;;0.80;0.80;;;;;;;16.58;83.21;100501.38;4972497;28;20034;-84
2022/06/23 08:52:18;;;;;;;2.47;1.20;;;;;;;16.99;80.11;100503.53;4973154;28;20077;-84
2022/06/23 08:54:52;;;;;;;4.30;1.77;;;;;;;17.27;78.94;100475.03;4989723;28;20038;-85
2022/06/23 08:57:28;;;;;;;6.53;3.00;;;;;;;17.78;75.85;100501.78;4976523;28;20121;-85
2022/06/23 09:00:35;;;;;;;0.80;0.80;;;;;;;18.29;73.30;100494.19;4973524;28;20027;-84
2022/06/23 09:03:24;;;;;;;1.00;0.80;;;;;;;18.67;70.55;100490.19;4983405;28;20113;-83
2022/06/23 09:05:55;;;;;;;6.70;3.60;;;;;;;18.94;68.00;100476.97;4969560;28;20460;-87
2022/06/23 09:08:24;;;;;;;3.25;1.33;;;;;;;19.38;66.39;100463.75;4960577;28;20531;-85
2022/06/23 09:11:10;;;;;;;1.73;1.08;;;;;;;19.85;62.98;100481.88;4959185;28;20376;-82
2022/06/23 09:13:43;;;;;;;2.38;1.42;;;;;;;20.07;62.21;100466.44;4988081;28;20034;-86
2022/06/23 09:16:09;;;;;;;2.58;1.15;;;;;;;20.78;59.98;100464.09;4980820;28;20388;-85
2022/06/23 09:18:52;;;;;;;4.22;2.13;;;;;;;20.84;58.89;100467.72;4968198;28;20049;-85
2022/06/23 09:21:25;;;;;;;3.28;1.60;;;;;;;20.81;58.57;100469.06;4971308;28;20093;-87
2022/06/23 09:24:28;;;;;;;3.35;2.30;;;;;;;21.24;59.39;100463.91;4955456;28;20120;-81
2022/06/23 09:27:12;;;;;;;2.83;1.90;;;;;;;22.02;57.17;100461.00;4971005;28;20031;-84
2022/06/23 09:29:50;;;;;;;2.95;2.40;;;;;;;22.77;53.58;100461.88;4984939;28;20419;-83
2022/06/23 09:32:36;;;;;;;4.68;2.60;;;;;;;22.68;51.43;100455.22;4991534;28;20089;-83
2022/06/23 09:35:13;;;;;;;5.63;2.80;;;;;;;22.29;53.55;100456.31;4974435;28;20058;-82
2022/06/23 09:37:51;;;;;;;3.85;2.45;;;;;;;22.01;53.16;100457.41;4974659;28;20038;-82
2022/06/23 09:40:33;;;;;;;3.67;2.53;;;;;;;21.86;54.85;100443.59;4965625;28;20125;-83
2022/06/23 09:42:59;;;;;;;6.03;3.13;;;;;;;22.75;52.65;100447.63;4985292;28;20034;-81
2022/06/23 09:45:43;;;;;;;3.42;2.53;;;;;;;23.24;51.87;100422.69;4967715;28;20862;-85
2022/06/23 09:48:13;;;;;;;4.40;2.70;;;;;;;23.00;50.17;100447.81;4990164;28;20045;-83
2022/06/23 09:51:05;;;;;;;4.30;3.13;;;;;;;22.54;52.23;100442.00;4963825;28;20038;-84
2022/06/23 09:53:38;;;;;;;5.65;4.13;;;;;;;22.27;52.12;100436.59;4964547;28;20042;-88
2022/06/23 09:56:24;;;;;;;;;;;;;;;21.97;53.59;100426.16;4978826;28;20431;-83
2022/06/23 09:59:07;;;;;;;7.60;4.35;;;;;;;21.90;54.35;100425.53;4980774;28;19983;-83
2022/06/23 10:01:51;;;;;;;6.88;4.30;;;;;;;21.90;53.37;100420.91;4978859;28;20034;-82
2022/06/23 10:04:29;;;;;;;5.43;3.67;;;;;;;21.95;54.02;100412.72;4987321;28;20515;-82
2022/06/23 10:07:22;;;;;;;7.63;4.28;;;;;;;22.03;54.51;100391.44;4970850;28;20073;-81
2022/06/23 10:10:21;;;;;;;6.30;3.63;;;;;;;22.64;51.76;100404.81;4977958;28;20030;-84
2022/06/23 10:13:20;;;;;;;4.32;3.13;;;;;;;22.54;51.96;100405.56;4958061;28;20141;-83
2022/06/23 10:16:09;;;;;;;3.95;2.08;;;;;;;22.34;52.09;100400.78;4964175;28;20594;-81
2022/06/23 10:18:57;;;;;;;3.70;2.03;;;;;;;22.16;52.17;100407.44;4949649;28;20393;-81
2022/06/23 10:21:39;;;;;;;4.93;3.17;;;;;;;21.98;53.11;100385.94;4987327;28;20034;-81
2022/06/23 10:24:19;;;;;;;4.72;2.95;;;;;;;22.05;54.05;100379.16;4953761;28;20186;-81
2022/06/23 10:26:54;;;;;;;3.63;2.78;;;;;;;22.12;53.52;100373.44;4962183;28;20038;-81
2022/06/23 10:29:26;;;;;;;4.40;3.30;;;;;;;22.27;53.83;100389.19;4949431;28;20472;-83
2022/06/23 10:32:07;;;;;;;5.97;4.95;;;;;;;22.20;53.52;100383.94;4981065;28;20033;-83
2022/06/23 10:34:42;;;;;;;5.90;3.83;;;;;;;22.27;53.69;100381.00;4974226;28;20030;-85
2022/06/23 10:37:22;;;;;;;6.13;4.35;;;;;;;22.35;53.57;100384.06;4975083;28;20038;-83
2022/06/23 10:40:12;;;;;;;7.53;4.85;;;;;;;22.35;54.30;100383.22;4991491;28;20117;-81
2022/06/23 10:42:44;;;;;;;7.88;5.13;;;;;;;22.27;53.73;100370.03;4973208;28;20117;-82
2022/06/23 10:45:25;;;;;;;8.63;6.03;;;;;;;21.87;55.24;100377.63;4975836;28;20408;-83
2022/06/23 10:48:18;;;;;;;9.27;6.70;;;;;;;21.55;57.85;100368.56;4985999;28;20034;-83
2022/06/23 10:51:15;;;;;;;;;;;;;;;21.37;57.21;100377.91;4976576;28;20038;-84
2022/06/23 10:53:56;;;;;;;8.57;6.75;;;;;;;20.97;58.15;100368.16;4973343;28;20048;-83
2022/06/23 10:56:47;;;;;;;10.13;5.47;;;;;;;20.69;59.03;100371.88;4987399;28;20030;-79
2022/06/23 10:59:51;;;;;;;8.48;6.10;;;;;;;20.20;61.23;100365.13;4986832;28;20121;-81
2022/06/23 11:02:32;;;;;;;9.88;6.45;;;;;;;20.11;61.34;100371.25;4977660;28;20518;-81
2022/06/23 11:05:07;;;;;;;9.13;6.43;;;;;;;20.17;61.57;100367.53;4968363;28;20041;-83
2022/06/23 11:07:39;;;;;;;11.50;6.45;;;;;;;20.18;61.49;100369.19;4973066;28;20353;-80
2022/06/23 11:10:07;;;;;;;8.52;5.82;;;;;;;20.09;61.73;100367.97;4984897;28;20100;-81
2022/06/23 11:12:53;;;;;;;9.90;6.50;;;;;;;19.90;62.49;100350.97;4968139;28;20112;-81
2022/06/23 11:15:28;;;;;;;8.95;5.80;;;;;;;20.02;62.01;100367.28;4964992;28;20132;-81
2022/06/23 11:18:02;;;;;;;9.45;6.68;;;;;;;20.17;62.35;100368.38;4979702;28;20045;-81
2022/06/23 11:21:09;;;;;;;9.68;6.80;;;;;;;20.38;62.06;100365.97;4995728;28;20033;-82
2022/06/23 11:24:29;;;;;;;9.52;6.55;;;;;;;20.74;60.64;100364.56;4985359;28;20042;-83
2022/06/23 11:27:20;;;;;;;9.10;6.07;;;;;;;20.85;60.26;100354.59;4934680;29;20122;-82
2022/06/23 11:30:04;;;;;;;9.20;6.57;;;;;;;20.90;59.73;100360.13;4968194;28;20054;-82
2022/06/23 11:32:56;;;;;;;9.60;6.30;;;;;;;20.79;59.85;100344.69;4983575;28;20408;-81
2022/06/23 11:35:37;;;;;;;10.55;5.82;;;;;;;20.89;59.77;100347.56;4986435;28;20042;-81
2022/06/23 11:38:28;;;;;;;11.27;6.10;;;;;;;20.73;60.43;100354.72;4968595;28;20023;-82
2022/06/23 11:41:12;;;;;;;12.27;7.10;;;;;;;20.69;59.92;100350.00;4988121;28;20372;-81
2022/06/23 11:44:28;;;;;;;10.25;6.18;;;;;;;20.88;59.99;100356.84;4984853;28;20045;-82
2022/06/23 11:47:03;;;;;;;10.88;6.63;;;;;;;21.19;59.48;100355.28;4984082;28;20583;-81
2022/06/23 11:49:50;;;;;;;10.40;7.13;;;;;;;21.25;58.14;100359.75;4982024;28;20035;-81
2022/06/23 11:52:24;;;;;;;8.20;5.18;;;;;;;20.96;58.13;100355.56;4962703;28;20410;-82
2022/06/23 11:55:01;;;;;;;11.02;6.80;;;;;;;20.70;59.96;100365.34;4967014;28;20038;-80
2022/06/23 11:58:01;;;;;;;9.77;5.75;;;;;;;20.71;59.78;100356.88;4982911;28;20032;-80
2022/06/23 12:01:06;;;;;;;8.25;5.35;;;;;;;20.64;60.99;100361.72;4976418;28;20057;-80
2022/06/23 12:04:09;;;;;;;11.75;5.28;;;;;;;20.61;60.00;100352.13;4984251;28;20042;-80
2022/06/23 12:06:44;;;;;;;7.40;4.93;;;;;;;20.46;61.21;100365.53;4981476;28;20403;-78
2022/06/23 12:09:36;;;;;;;6.47;4.22;;;;;;;20.41;61.62;100357.25;4994181;28;20078;-79
2022/06/23 12:12:05;;;;;;;7.97;4.60;;;;;;;20.50;61.00;100352.19;4968338;28;20539;-80
2022/06/23 12:14:35;;;;;;;8.73;4.80;;;;;;;20.28;61.14;100350.22;4995300;28;20038;-78
2022/06/23 12:17:18;;;;;;;9.05;5.68;;;;;;;20.21;61.92;100355.84;4989195;28;20072;-81